sensor_id;sensor_type;location;lat;lon;timestamp;P1;durP1;ratioP1;P2;durP2;ratioP2
40164;SDS011;25882;51.120;17.248;2022-07-21T00:01:18;11.20;;;5.32;;
40164;SDS011;25882;51.120;17.248;2022-07-21T00:03:44;12.57;;;5.50;;
40164;SDS011;25882;51.120;17.248;2022-07-21T00:06:11;12.25;;;5.70;;
40164;SDS011;25882;51.120;17.248;2022-07-21T00:08:37;9.77;;;5.45;;
40164;SDS011;25882;51.120;17.248;2022-07-21T00:11:04;8.45;;;5.22;;
40164;SDS011;25882;51.120;17.248;2022-07-21T00:13:30;9.95;;;5.90;;
40164;SDS011;25882;51.120;17.248;2022-07-21T00:15:58;12.30;;;5.95;;
40164;SDS011;25882;51.120;17.248;2022-07-21T00:18:25;8.52;;;5.30;;
40164;SDS011;25882;51.120;17.248;2022-07-21T00:20:55;9.30;;;5.43;;
40164;SDS011;25882;51.120;17.248;2022-07-21T00:23:21;12.48;;;5.68;;
40164;SDS011;25882;51.120;17.248;2022-07-21T00:25:47;11.48;;;5.40;;
40164;SDS011;25882;51.120;17.248;2022-07-21T00:28:13;11.38;;;5.95;;
40164;SDS011;25882;51.120;17.248;2022-07-21T00:30:40;9.95;;;6.40;;
40164;SDS011;25882;51.120;17.248;2022-07-21T00:33:07;15.10;;;6.03;;
40164;SDS011;25882;51.120;17.248;2022-07-21T00:35:34;14.27;;;5.60;;
40164;SDS011;25882;51.120;17.248;2022-07-21T00:38:01;13.23;;;6.22;;
40164;SDS011;25882;51.120;17.248;2022-07-21T00:40:27;11.68;;;6.15;;
40164;SDS011;25882;51.120;17.248;2022-07-21T00:42:54;11.75;;;6.68;;
40164;SDS011;25882;51.120;17.248;2022-07-21T00:45:20;14.43;;;5.75;;
40164;SDS011;25882;51.120;17.248;2022-07-21T00:47:46;11.65;;;5.40;;
40164;SDS011;25882;51.120;17.248;2022-07-21T00:50:15;10.25;;;5.38;;
40164;SDS011;25882;51.120;17.248;2022-07-21T00:52:42;10.55;;;5.95;;
40164;SDS011;25882;51.120;17.248;2022-07-21T00:55:10;9.82;;;5.75;;
40164;SDS011;25882;51.120;17.248;2022-07-21T00:57:37;8.88;;;5.30;;
40164;SDS011;25882;51.120;17.248;2022-07-21T01:00:05;9.60;;;6.55;;
40164;SDS011;25882;51.120;17.248;2022-07-21T01:02:33;11.60;;;6.65;;
40164;SDS011;25882;51.120;17.248;2022-07-21T01:05:02;13.10;;;7.10;;
40164;SDS011;25882;51.120;17.248;2022-07-21T01:07:30;12.70;;;6.18;;
40164;SDS011;25882;51.120;17.248;2022-07-21T01:09:56;14.43;;;6.35;;
40164;SDS011;25882;51.120;17.248;2022-07-21T01:12:23;14.27;;;7.30;;
40164;SDS011;25882;51.120;17.248;2022-07-21T01:14:49;27.15;;;8.13;;
40164;SDS011;25882;51.120;17.248;2022-07-21T01:17:16;10.85;;;6.07;;
40164;SDS011;25882;51.120;17.248;2022-07-21T01:19:42;11.60;;;5.90;;
40164;SDS011;25882;51.120;17.248;2022-07-21T01:22:10;12.43;;;6.60;;
40164;SDS011;25882;51.120;17.248;2022-07-21T01:24:36;13.98;;;6.68;;
40164;SDS011;25882;51.120;17.248;2022-07-21T01:27:03;11.68;;;5.95;;
40164;SDS011;25882;51.120;17.248;2022-07-21T01:29:29;17.27;;;6.30;;
40164;SDS011;25882;51.120;17.248;2022-07-21T01:31:55;11.07;;;6.13;;
40164;SDS011;25882;51.120;17.248;2022-07-21T01:34:21;9.40;;;6.20;;
40164;SDS011;25882;51.120;17.248;2022-07-21T01:36:48;11.50;;;6.78;;
40164;SDS011;25882;51.120;17.248;2022-07-21T01:39:15;11.10;;;6.18;;
40164;SDS011;25882;51.120;17.248;2022-07-21T01:42:00;11.63;;;6.00;;
40164;SDS011;25882;51.120;17.248;2022-07-21T01:44:26;10.88;;;6.28;;
40164;SDS011;25882;51.120;17.248;2022-07-21T01:46:53;12.95;;;6.20;;
40164;SDS011;25882;51.120;17.248;2022-07-21T01:49:20;10.88;;;6.10;;
40164;SDS011;25882;51.120;17.248;2022-07-21T01:51:47;11.27;;;6.18;;
40164;SDS011;25882;51.120;17.248;2022-07-21T01:54:15;9.40;;;6.68;;
40164;SDS011;25882;51.120;17.248;2022-07-21T01:56:42;9.00;;;6.15;;
40164;SDS011;25882;51.120;17.248;2022-07-21T01:59:08;11.05;;;7.47;;
40164;SDS011;25882;51.120;17.248;2022-07-21T02:01:34;12.95;;;6.60;;
40164;SDS011;25882;51.120;17.248;2022-07-21T02:04:02;10.98;;;6.43;;
40164;SDS011;25882;51.120;17.248;2022-07-21T02:06:29;10.20;;;6.30;;
40164;SDS011;25882;51.120;17.248;2022-07-21T02:08:56;11.32;;;6.95;;
40164;SDS011;25882;51.120;17.248;2022-07-21T02:11:24;12.60;;;7.03;;
40164;SDS011;25882;51.120;17.248;2022-07-21T02:13:50;12.32;;;6.97;;
40164;SDS011;25882;51.120;17.248;2022-07-21T02:16:16;13.13;;;7.13;;
40164;SDS011;25882;51.120;17.248;2022-07-21T02:18:43;12.93;;;6.13;;
40164;SDS011;25882;51.120;17.248;2022-07-21T02:21:09;9.65;;;6.13;;
40164;SDS011;25882;51.120;17.248;2022-07-21T02:23:36;10.73;;;7.20;;
40164;SDS011;25882;51.120;17.248;2022-07-21T02:26:02;12.25;;;7.18;;
40164;SDS011;25882;51.120;17.248;2022-07-21T02:28:30;10.73;;;6.63;;
40164;SDS011;25882;51.120;17.248;2022-07-21T02:30:56;11.85;;;7.18;;
40164;SDS011;25882;51.120;17.248;2022-07-21T02:33:23;9.23;;;5.82;;
40164;SDS011;25882;51.120;17.248;2022-07-21T02:35:49;9.65;;;5.90;;
40164;SDS011;25882;51.120;17.248;2022-07-21T02:38:15;12.27;;;6.90;;
40164;SDS011;25882;51.120;17.248;2022-07-21T02:40:42;12.98;;;6.97;;
40164;SDS011;25882;51.120;17.248;2022-07-21T02:43:08;11.45;;;6.65;;
40164;SDS011;25882;51.120;17.248;2022-07-21T02:45:36;10.68;;;6.75;;
40164;SDS011;25882;51.120;17.248;2022-07-21T02:48:04;13.45;;;7.25;;
40164;SDS011;25882;51.120;17.248;2022-07-21T02:50:32;9.32;;;6.57;;
40164;SDS011;25882;51.120;17.248;2022-07-21T02:53:01;12.90;;;7.70;;
40164;SDS011;25882;51.120;17.248;2022-07-21T02:55:28;14.27;;;7.90;;
40164;SDS011;25882;51.120;17.248;2022-07-21T02:58:05;10.20;;;6.68;;
40164;SDS011;25882;51.120;17.248;2022-07-21T03:00:33;13.82;;;7.53;;
40164;SDS011;25882;51.120;17.248;2022-07-21T03:03:01;8.65;;;6.18;;
40164;SDS011;25882;51.120;17.248;2022-07-21T03:05:27;18.83;;;7.65;;
40164;SDS011;25882;51.120;17.248;2022-07-21T03:07:54;16.17;;;8.55;;
40164;SDS011;25882;51.120;17.248;2022-07-21T03:10:20;16.75;;;8.32;;
40164;SDS011;25882;51.120;17.248;2022-07-21T03:12:47;11.52;;;7.55;;
40164;SDS011;25882;51.120;17.248;2022-07-21T03:15:13;19.92;;;9.80;;
40164;SDS011;25882;51.120;17.248;2022-07-21T03:17:39;12.30;;;7.15;;
40164;SDS011;25882;51.120;17.248;2022-07-21T03:20:08;13.88;;;8.23;;
40164;SDS011;25882;51.120;17.248;2022-07-21T03:22:35;21.00;;;8.57;;
40164;SDS011;25882;51.120;17.248;2022-07-21T03:25:01;16.80;;;7.65;;
40164;SDS011;25882;51.120;17.248;2022-07-21T03:27:28;10.40;;;7.35;;
40164;SDS011;25882;51.120;17.248;2022-07-21T03:29:54;11.10;;;7.47;;
40164;SDS011;25882;51.120;17.248;2022-07-21T03:32:21;12.52;;;7.22;;
40164;SDS011;25882;51.120;17.248;2022-07-21T03:34:47;12.75;;;7.57;;
40164;SDS011;25882;51.120;17.248;2022-07-21T03:37:15;10.82;;;7.20;;
40164;SDS011;25882;51.120;17.248;2022-07-21T03:39:41;11.02;;;7.45;;
40164;SDS011;25882;51.120;17.248;2022-07-21T03:42:07;18.42;;;8.18;;
40164;SDS011;25882;51.120;17.248;2022-07-21T03:44:34;12.10;;;7.15;;
40164;SDS011;25882;51.120;17.248;2022-07-21T03:47:00;14.15;;;7.38;;
40164;SDS011;25882;51.120;17.248;2022-07-21T03:49:28;13.77;;;7.63;;
40164;SDS011;25882;51.120;17.248;2022-07-21T03:51:54;13.98;;;8.32;;
40164;SDS011;25882;51.120;17.248;2022-07-21T03:54:22;13.20;;;8.05;;
40164;SDS011;25882;51.120;17.248;2022-07-21T03:56:48;11.48;;;7.25;;
40164;SDS011;25882;51.120;17.248;2022-07-21T03:59:15;14.02;;;7.57;;
40164;SDS011;25882;51.120;17.248;2022-07-21T04:01:41;12.50;;;6.97;;
40164;SDS011;25882;51.120;17.248;2022-07-21T04:04:07;12.18;;;7.60;;
40164;SDS011;25882;51.120;17.248;2022-07-21T04:06:34;10.88;;;7.40;;
40164;SDS011;25882;51.120;17.248;2022-07-21T04:09:00;11.50;;;7.40;;
40164;SDS011;25882;51.120;17.248;2022-07-21T04:11:28;12.63;;;7.00;;
40164;SDS011;25882;51.120;17.248;2022-07-21T04:13:56;11.00;;;7.18;;
40164;SDS011;25882;51.120;17.248;2022-07-21T04:16:22;13.77;;;7.60;;
40164;SDS011;25882;51.120;17.248;2022-07-21T04:18:48;11.88;;;7.45;;
40164;SDS011;25882;51.120;17.248;2022-07-21T04:21:15;9.43;;;6.97;;
40164;SDS011;25882;51.120;17.248;2022-07-21T04:23:41;10.73;;;6.45;;
40164;SDS011;25882;51.120;17.248;2022-07-21T04:26:07;14.75;;;7.15;;
40164;SDS011;25882;51.120;17.248;2022-07-21T04:28:35;10.40;;;6.72;;
40164;SDS011;25882;51.120;17.248;2022-07-21T04:31:02;13.27;;;7.20;;
40164;SDS011;25882;51.120;17.248;2022-07-21T04:33:28;12.65;;;8.45;;
40164;SDS011;25882;51.120;17.248;2022-07-21T04:35:54;10.98;;;6.82;;
40164;SDS011;25882;51.120;17.248;2022-07-21T04:38:20;10.52;;;7.03;;
40164;SDS011;25882;51.120;17.248;2022-07-21T04:40:47;9.77;;;6.97;;
40164;SDS011;25882;51.120;17.248;2022-07-21T04:43:13;12.20;;;6.93;;
40164;SDS011;25882;51.120;17.248;2022-07-21T04:45:41;13.32;;;7.78;;
40164;SDS011;25882;51.120;17.248;2022-07-21T04:48:07;9.82;;;7.07;;
40164;SDS011;25882;51.120;17.248;2022-07-21T04:50:34;10.93;;;7.07;;
40164;SDS011;25882;51.120;17.248;2022-07-21T04:53:00;13.68;;;7.03;;
40164;SDS011;25882;51.120;17.248;2022-07-21T04:55:26;13.85;;;7.00;;
40164;SDS011;25882;51.120;17.248;2022-07-21T04:57:53;11.23;;;6.90;;
40164;SDS011;25882;51.120;17.248;2022-07-21T05:00:21;10.25;;;7.47;;
40164;SDS011;25882;51.120;17.248;2022-07-21T05:02:51;10.43;;;7.20;;
40164;SDS011;25882;51.120;17.248;2022-07-21T05:05:18;8.90;;;6.65;;
40164;SDS011;25882;51.120;17.248;2022-07-21T05:07:44;10.27;;;8.00;;
40164;SDS011;25882;51.120;17.248;2022-07-21T05:10:11;13.40;;;7.85;;
40164;SDS011;25882;51.120;17.248;2022-07-21T05:12:39;15.30;;;8.68;;
40164;SDS011;25882;51.120;17.248;2022-07-21T05:15:06;10.45;;;8.00;;
40164;SDS011;25882;51.120;17.248;2022-07-21T05:17:34;13.05;;;7.47;;
40164;SDS011;25882;51.120;17.248;2022-07-21T05:20:03;13.18;;;7.90;;
40164;SDS011;25882;51.120;17.248;2022-07-21T05:22:30;12.20;;;8.13;;
40164;SDS011;25882;51.120;17.248;2022-07-21T05:24:56;12.38;;;7.80;;
40164;SDS011;25882;51.120;17.248;2022-07-21T05:27:23;11.43;;;7.95;;
40164;SDS011;25882;51.120;17.248;2022-07-21T05:29:49;21.58;;;9.38;;
40164;SDS011;25882;51.120;17.248;2022-07-21T05:32:16;12.93;;;8.13;;
40164;SDS011;25882;51.120;17.248;2022-07-21T05:34:42;10.40;;;7.72;;
40164;SDS011;25882;51.120;17.248;2022-07-21T05:37:10;13.00;;;7.53;;
40164;SDS011;25882;51.120;17.248;2022-07-21T05:39:36;13.02;;;7.57;;
40164;SDS011;25882;51.120;17.248;2022-07-21T05:42:03;14.23;;;8.00;;
40164;SDS011;25882;51.120;17.248;2022-07-21T05:44:29;12.48;;;7.00;;
40164;SDS011;25882;51.120;17.248;2022-07-21T05:46:55;14.10;;;7.57;;
40164;SDS011;25882;51.120;17.248;2022-07-21T05:49:22;14.88;;;7.95;;
40164;SDS011;25882;51.120;17.248;2022-07-21T05:51:48;11.88;;;7.90;;
40164;SDS011;25882;51.120;17.248;2022-07-21T05:54:16;14.32;;;7.53;;
40164;SDS011;25882;51.120;17.248;2022-07-21T05:56:42;10.05;;;7.05;;
40164;SDS011;25882;51.120;17.248;2022-07-21T05:59:08;10.73;;;8.10;;
40164;SDS011;25882;51.120;17.248;2022-07-21T06:01:35;16.00;;;8.27;;
40164;SDS011;25882;51.120;17.248;2022-07-21T06:04:01;11.13;;;7.80;;
40164;SDS011;25882;51.120;17.248;2022-07-21T06:06:28;13.63;;;7.13;;
40164;SDS011;25882;51.120;17.248;2022-07-21T06:08:54;13.85;;;7.70;;
40164;SDS011;25882;51.120;17.248;2022-07-21T06:11:22;11.90;;;7.90;;
40164;SDS011;25882;51.120;17.248;2022-07-21T06:13:49;13.57;;;7.97;;
40164;SDS011;25882;51.120;17.248;2022-07-21T06:16:15;15.70;;;7.35;;
40164;SDS011;25882;51.120;17.248;2022-07-21T06:18:41;15.00;;;7.47;;
40164;SDS011;25882;51.120;17.248;2022-07-21T06:21:08;15.18;;;7.60;;
40164;SDS011;25882;51.120;17.248;2022-07-21T06:23:34;12.70;;;8.13;;
40164;SDS011;25882;51.120;17.248;2022-07-21T06:26:01;15.43;;;7.95;;
40164;SDS011;25882;51.120;17.248;2022-07-21T06:28:28;14.55;;;8.00;;
40164;SDS011;25882;51.120;17.248;2022-07-21T06:30:55;12.23;;;7.65;;
40164;SDS011;25882;51.120;17.248;2022-07-21T06:33:21;12.82;;;7.28;;
40164;SDS011;25882;51.120;17.248;2022-07-21T06:35:47;11.73;;;6.80;;
40164;SDS011;25882;51.120;17.248;2022-07-21T06:38:13;11.13;;;7.03;;
40164;SDS011;25882;51.120;17.248;2022-07-21T06:40:40;12.15;;;7.43;;
40164;SDS011;25882;51.120;17.248;2022-07-21T06:43:06;11.63;;;6.93;;
40164;SDS011;25882;51.120;17.248;2022-07-21T06:45:34;14.35;;;7.10;;
40164;SDS011;25882;51.120;17.248;2022-07-21T06:48:02;10.02;;;6.18;;
40164;SDS011;25882;51.120;17.248;2022-07-21T06:50:29;13.75;;;7.75;;
40164;SDS011;25882;51.120;17.248;2022-07-21T06:52:55;12.15;;;7.35;;
40164;SDS011;25882;51.120;17.248;2022-07-21T06:55:22;8.57;;;6.50;;
40164;SDS011;25882;51.120;17.248;2022-07-21T06:57:48;9.95;;;6.57;;
40164;SDS011;25882;51.120;17.248;2022-07-21T07:00:15;10.93;;;6.43;;
40164;SDS011;25882;51.120;17.248;2022-07-21T07:02:43;8.95;;;5.80;;
40164;SDS011;25882;51.120;17.248;2022-07-21T07:05:10;11.27;;;6.35;;
40164;SDS011;25882;51.120;17.248;2022-07-21T07:07:50;10.68;;;6.28;;
40164;SDS011;25882;51.120;17.248;2022-07-21T07:10:17;9.27;;;5.75;;
40164;SDS011;25882;51.120;17.248;2022-07-21T07:12:43;11.93;;;6.68;;
40164;SDS011;25882;51.120;17.248;2022-07-21T07:15:09;10.05;;;6.40;;
40164;SDS011;25882;51.120;17.248;2022-07-21T07:17:36;10.48;;;6.22;;
40164;SDS011;25882;51.120;17.248;2022-07-21T07:20:05;10.13;;;6.32;;
40164;SDS011;25882;51.120;17.248;2022-07-21T07:24:59;10.27;;;6.10;;
40164;SDS011;25882;51.120;17.248;2022-07-21T07:27:25;9.15;;;6.03;;
40164;SDS011;25882;51.120;17.248;2022-07-21T07:29:51;9.85;;;6.10;;
40164;SDS011;25882;51.120;17.248;2022-07-21T07:32:18;10.50;;;6.55;;
40164;SDS011;25882;51.120;17.248;2022-07-21T07:34:44;8.70;;;5.68;;
40164;SDS011;25882;51.120;17.248;2022-07-21T07:37:12;9.68;;;6.13;;
40164;SDS011;25882;51.120;17.248;2022-07-21T07:39:38;7.45;;;5.82;;
40164;SDS011;25882;51.120;17.248;2022-07-21T07:42:05;8.98;;;5.80;;
40164;SDS011;25882;51.120;17.248;2022-07-21T07:44:32;6.95;;;5.32;;
40164;SDS011;25882;51.120;17.248;2022-07-21T07:46:59;6.22;;;5.28;;
40164;SDS011;25882;51.120;17.248;2022-07-21T07:49:27;11.05;;;6.00;;
40164;SDS011;25882;51.120;17.248;2022-07-21T07:51:54;9.23;;;5.18;;
40164;SDS011;25882;51.120;17.248;2022-07-21T07:54:22;8.70;;;5.50;;
40164;SDS011;25882;51.120;17.248;2022-07-21T07:56:48;8.90;;;5.20;;
40164;SDS011;25882;51.120;17.248;2022-07-21T07:59:14;11.32;;;6.18;;
40164;SDS011;25882;51.120;17.248;2022-07-21T08:01:40;7.55;;;4.97;;
40164;SDS011;25882;51.120;17.248;2022-07-21T08:04:07;7.05;;;5.28;;
40164;SDS011;25882;51.120;17.248;2022-07-21T08:06:34;6.75;;;5.30;;
40164;SDS011;25882;51.120;17.248;2022-07-21T08:09:00;8.25;;;5.03;;
40164;SDS011;25882;51.120;17.248;2022-07-21T08:11:28;6.50;;;5.00;;
40164;SDS011;25882;51.120;17.248;2022-07-21T08:13:54;8.98;;;5.13;;
40164;SDS011;25882;51.120;17.248;2022-07-21T08:16:20;6.03;;;5.05;;
40164;SDS011;25882;51.120;17.248;2022-07-21T08:18:46;7.55;;;4.65;;
40164;SDS011;25882;51.120;17.248;2022-07-21T08:21:13;8.63;;;4.60;;
40164;SDS011;25882;51.120;17.248;2022-07-21T08:23:40;10.77;;;4.18;;
40164;SDS011;25882;51.120;17.248;2022-07-21T08:26:06;6.90;;;4.55;;
40164;SDS011;25882;51.120;17.248;2022-07-21T08:28:34;9.63;;;4.55;;
40164;SDS011;25882;51.120;17.248;2022-07-21T08:31:00;7.15;;;4.40;;
40164;SDS011;25882;51.120;17.248;2022-07-21T08:33:26;8.13;;;4.20;;
40164;SDS011;25882;51.120;17.248;2022-07-21T08:35:53;8.70;;;4.95;;
40164;SDS011;25882;51.120;17.248;2022-07-21T08:38:19;7.18;;;4.68;;
40164;SDS011;25882;51.120;17.248;2022-07-21T08:40:46;7.93;;;4.35;;
40164;SDS011;25882;51.120;17.248;2022-07-21T08:43:12;6.45;;;4.03;;
40164;SDS011;25882;51.120;17.248;2022-07-21T08:45:41;8.35;;;4.38;;
40164;SDS011;25882;51.120;17.248;2022-07-21T08:48:08;9.65;;;4.78;;
40164;SDS011;25882;51.120;17.248;2022-07-21T08:50:35;4.82;;;4.32;;
40164;SDS011;25882;51.120;17.248;2022-07-21T08:53:02;4.75;;;3.70;;
40164;SDS011;25882;51.120;17.248;2022-07-21T08:55:29;4.07;;;3.60;;
40164;SDS011;25882;51.120;17.248;2022-07-21T08:57:56;6.00;;;3.58;;
40164;SDS011;25882;51.120;17.248;2022-07-21T09:00:22;5.53;;;4.18;;
40164;SDS011;25882;51.120;17.248;2022-07-21T09:02:50;7.78;;;4.20;;
40164;SDS011;25882;51.120;17.248;2022-07-21T09:05:34;6.13;;;3.53;;
40164;SDS011;25882;51.120;17.248;2022-07-21T09:08:00;6.20;;;3.53;;
40164;SDS011;25882;51.120;17.248;2022-07-21T09:10:27;12.25;;;3.75;;
40164;SDS011;25882;51.120;17.248;2022-07-21T09:12:55;4.20;;;3.20;;
40164;SDS011;25882;51.120;17.248;2022-07-21T09:15:22;6.80;;;3.45;;
40164;SDS011;25882;51.120;17.248;2022-07-21T09:18:04;4.82;;;3.03;;
40164;SDS011;25882;51.120;17.248;2022-07-21T09:20:33;4.60;;;3.47;;
40164;SDS011;25882;51.120;17.248;2022-07-21T09:23:00;4.22;;;3.65;;
40164;SDS011;25882;51.120;17.248;2022-07-21T09:25:38;4.65;;;3.10;;
40164;SDS011;25882;51.120;17.248;2022-07-21T09:28:15;5.07;;;2.72;;
40164;SDS011;25882;51.120;17.248;2022-07-21T09:30:54;6.90;;;3.92;;
40164;SDS011;25882;51.120;17.248;2022-07-21T09:35:53;5.03;;;3.30;;
40164;SDS011;25882;51.120;17.248;2022-07-21T09:38:24;4.63;;;3.65;;
40164;SDS011;25882;51.120;17.248;2022-07-21T09:40:50;4.15;;;3.17;;
40164;SDS011;25882;51.120;17.248;2022-07-21T09:43:30;4.43;;;2.72;;
40164;SDS011;25882;51.120;17.248;2022-07-21T09:46:02;4.85;;;3.05;;
40164;SDS011;25882;51.120;17.248;2022-07-21T09:48:32;4.47;;;3.28;;
40164;SDS011;25882;51.120;17.248;2022-07-21T09:51:07;6.28;;;2.92;;
40164;SDS011;25882;51.120;17.248;2022-07-21T09:53:49;3.30;;;2.75;;
40164;SDS011;25882;51.120;17.248;2022-07-21T09:56:17;5.20;;;2.65;;
40164;SDS011;25882;51.120;17.248;2022-07-21T09:58:43;6.50;;;2.80;;
40164;SDS011;25882;51.120;17.248;2022-07-21T10:01:12;4.18;;;3.05;;
40164;SDS011;25882;51.120;17.248;2022-07-21T10:03:39;4.65;;;3.03;;
40164;SDS011;25882;51.120;17.248;2022-07-21T10:06:07;3.53;;;2.80;;
40164;SDS011;25882;51.120;17.248;2022-07-21T10:08:34;4.35;;;3.05;;
40164;SDS011;25882;51.120;17.248;2022-07-21T10:11:01;6.13;;;2.83;;
40164;SDS011;25882;51.120;17.248;2022-07-21T10:13:27;3.35;;;1.80;;
40164;SDS011;25882;51.120;17.248;2022-07-21T10:15:54;3.38;;;1.98;;
40164;SDS011;25882;51.120;17.248;2022-07-21T10:18:20;4.80;;;2.53;;
40164;SDS011;25882;51.120;17.248;2022-07-21T10:20:52;3.63;;;2.50;;
40164;SDS011;25882;51.120;17.248;2022-07-21T10:23:27;2.85;;;2.50;;
40164;SDS011;25882;51.120;17.248;2022-07-21T10:25:55;6.10;;;2.80;;
40164;SDS011;25882;51.120;17.248;2022-07-21T10:28:23;3.92;;;2.80;;
40164;SDS011;25882;51.120;17.248;2022-07-21T10:30:50;4.38;;;2.20;;
40164;SDS011;25882;51.120;17.248;2022-07-21T10:33:18;4.13;;;2.53;;
40164;SDS011;25882;51.120;17.248;2022-07-21T10:35:46;7.05;;;2.97;;
40164;SDS011;25882;51.120;17.248;2022-07-21T10:38:27;4.00;;;2.40;;
40164;SDS011;25882;51.120;17.248;2022-07-21T10:40:54;4.00;;;2.25;;
40164;SDS011;25882;51.120;17.248;2022-07-21T10:46:33;4.00;;;2.22;;
40164;SDS011;25882;51.120;17.248;2022-07-21T10:49:04;5.80;;;2.10;;
40164;SDS011;25882;51.120;17.248;2022-07-21T10:51:31;2.70;;;2.15;;
40164;SDS011;25882;51.120;17.248;2022-07-21T11:02:50;4.35;;;2.20;;
40164;SDS011;25882;51.120;17.248;2022-07-21T11:05:19;4.43;;;2.00;;
40164;SDS011;25882;51.120;17.248;2022-07-21T11:10:43;4.88;;;1.92;;
40164;SDS011;25882;51.120;17.248;2022-07-21T11:13:11;5.63;;;2.20;;
40164;SDS011;25882;51.120;17.248;2022-07-21T11:15:55;4.18;;;1.95;;
40164;SDS011;25882;51.120;17.248;2022-07-21T11:18:23;3.63;;;2.00;;
40164;SDS011;25882;51.120;17.248;2022-07-21T11:21:05;6.47;;;2.10;;
40164;SDS011;25882;51.120;17.248;2022-07-21T11:23:35;5.78;;;1.90;;
40164;SDS011;25882;51.120;17.248;2022-07-21T11:26:03;3.45;;;2.10;;
40164;SDS011;25882;51.120;17.248;2022-07-21T11:28:29;5.45;;;2.05;;
40164;SDS011;25882;51.120;17.248;2022-07-21T11:31:05;5.60;;;2.30;;
40164;SDS011;25882;51.120;17.248;2022-07-21T11:33:37;10.70;;;2.70;;
40164;SDS011;25882;51.120;17.248;2022-07-21T11:36:04;5.65;;;2.45;;
40164;SDS011;25882;51.120;17.248;2022-07-21T11:38:31;6.97;;;2.75;;
40164;SDS011;25882;51.120;17.248;2022-07-21T11:43:42;5.80;;;2.58;;
40164;SDS011;25882;51.120;17.248;2022-07-21T11:46:09;7.28;;;2.45;;
40164;SDS011;25882;51.120;17.248;2022-07-21T11:48:36;5.35;;;2.75;;
40164;SDS011;25882;51.120;17.248;2022-07-21T11:51:03;8.35;;;2.50;;
40164;SDS011;25882;51.120;17.248;2022-07-21T11:53:30;4.25;;;2.25;;
40164;SDS011;25882;51.120;17.248;2022-07-21T11:55:56;2.60;;;1.98;;
40164;SDS011;25882;51.120;17.248;2022-07-21T11:58:25;5.07;;;2.80;;
40164;SDS011;25882;51.120;17.248;2022-07-21T12:01:03;8.15;;;2.72;;
40164;SDS011;25882;51.120;17.248;2022-07-21T12:03:30;6.72;;;2.53;;
40164;SDS011;25882;51.120;17.248;2022-07-21T12:05:57;6.90;;;2.75;;
40164;SDS011;25882;51.120;17.248;2022-07-21T12:08:23;5.78;;;2.92;;
40164;SDS011;25882;51.120;17.248;2022-07-21T12:10:50;6.85;;;3.05;;
40164;SDS011;25882;51.120;17.248;2022-07-21T12:13:16;6.10;;;3.10;;
40164;SDS011;25882;51.120;17.248;2022-07-21T12:15:46;6.82;;;2.47;;
40164;SDS011;25882;51.120;17.248;2022-07-21T12:18:17;5.90;;;2.92;;
40164;SDS011;25882;51.120;17.248;2022-07-21T12:20:45;6.03;;;3.17;;
40164;SDS011;25882;51.120;17.248;2022-07-21T12:23:18;8.00;;;2.95;;
40164;SDS011;25882;51.120;17.248;2022-07-21T12:25:46;6.63;;;2.70;;
40164;SDS011;25882;51.120;17.248;2022-07-21T12:28:13;5.80;;;2.53;;
40164;SDS011;25882;51.120;17.248;2022-07-21T12:30:40;5.38;;;3.05;;
40164;SDS011;25882;51.120;17.248;2022-07-21T12:33:10;7.70;;;3.08;;
40164;SDS011;25882;51.120;17.248;2022-07-21T12:35:37;8.68;;;4.00;;
40164;SDS011;25882;51.120;17.248;2022-07-21T12:38:05;9.48;;;3.83;;
40164;SDS011;25882;51.120;17.248;2022-07-21T12:40:34;8.38;;;3.17;;
40164;SDS011;25882;51.120;17.248;2022-07-21T12:43:06;8.73;;;3.75;;
40164;SDS011;25882;51.120;17.248;2022-07-21T12:45:44;5.93;;;3.47;;
40164;SDS011;25882;51.120;17.248;2022-07-21T12:48:13;6.10;;;2.88;;
40164;SDS011;25882;51.120;17.248;2022-07-21T12:50:40;7.63;;;2.85;;
40164;SDS011;25882;51.120;17.248;2022-07-21T12:53:08;8.75;;;3.40;;
40164;SDS011;25882;51.120;17.248;2022-07-21T12:55:34;6.18;;;3.30;;
40164;SDS011;25882;51.120;17.248;2022-07-21T12:58:01;9.25;;;3.28;;
40164;SDS011;25882;51.120;17.248;2022-07-21T13:00:27;4.65;;;3.20;;
40164;SDS011;25882;51.120;17.248;2022-07-21T13:02:54;6.57;;;2.92;;
40164;SDS011;25882;51.120;17.248;2022-07-21T13:05:23;7.95;;;3.08;;
40164;SDS011;25882;51.120;17.248;2022-07-21T13:07:51;6.88;;;3.45;;
40164;SDS011;25882;51.120;17.248;2022-07-21T13:10:17;8.80;;;3.15;;
40164;SDS011;25882;51.120;17.248;2022-07-21T13:12:44;10.68;;;3.92;;
40164;SDS011;25882;51.120;17.248;2022-07-21T13:15:10;6.05;;;3.83;;
40164;SDS011;25882;51.120;17.248;2022-07-21T13:17:37;13.02;;;4.28;;
40164;SDS011;25882;51.120;17.248;2022-07-21T13:20:04;5.28;;;3.00;;
40164;SDS011;25882;51.120;17.248;2022-07-21T13:22:33;8.10;;;3.85;;
40164;SDS011;25882;51.120;17.248;2022-07-21T13:24:59;7.88;;;3.47;;
40164;SDS011;25882;51.120;17.248;2022-07-21T13:27:26;9.23;;;3.83;;
40164;SDS011;25882;51.120;17.248;2022-07-21T13:29:52;10.32;;;4.00;;
40164;SDS011;25882;51.120;17.248;2022-07-21T13:32:18;12.45;;;3.92;;
40164;SDS011;25882;51.120;17.248;2022-07-21T13:34:44;6.38;;;3.70;;
40164;SDS011;25882;51.120;17.248;2022-07-21T13:37:10;8.50;;;3.55;;
40164;SDS011;25882;51.120;17.248;2022-07-21T13:39:38;8.38;;;3.67;;
40164;SDS011;25882;51.120;17.248;2022-07-21T13:42:05;7.65;;;3.53;;
40164;SDS011;25882;51.120;17.248;2022-07-21T13:44:32;10.25;;;4.10;;
40164;SDS011;25882;51.120;17.248;2022-07-21T13:46:59;8.48;;;3.17;;
40164;SDS011;25882;51.120;17.248;2022-07-21T13:49:25;6.15;;;3.00;;
40164;SDS011;25882;51.120;17.248;2022-07-21T13:51:51;8.50;;;3.25;;
40164;SDS011;25882;51.120;17.248;2022-07-21T13:54:18;10.48;;;3.85;;
40164;SDS011;25882;51.120;17.248;2022-07-21T13:56:47;10.77;;;3.60;;
40164;SDS011;25882;51.120;17.248;2022-07-21T13:59:14;11.07;;;3.60;;
40164;SDS011;25882;51.120;17.248;2022-07-21T14:01:40;6.72;;;3.35;;
40164;SDS011;25882;51.120;17.248;2022-07-21T14:04:07;7.28;;;3.05;;
40164;SDS011;25882;51.120;17.248;2022-07-21T14:06:34;9.43;;;3.40;;
40164;SDS011;25882;51.120;17.248;2022-07-21T14:09:00;6.63;;;4.10;;
40164;SDS011;25882;51.120;17.248;2022-07-21T14:11:27;7.05;;;4.03;;
40164;SDS011;25882;51.120;17.248;2022-07-21T14:13:55;5.90;;;2.97;;
40164;SDS011;25882;51.120;17.248;2022-07-21T14:16:21;10.50;;;4.20;;
40164;SDS011;25882;51.120;17.248;2022-07-21T14:18:48;11.63;;;4.30;;
40164;SDS011;25882;51.120;17.248;2022-07-21T14:21:14;9.10;;;4.10;;
40164;SDS011;25882;51.120;17.248;2022-07-21T14:23:40;10.25;;;3.80;;
40164;SDS011;25882;51.120;17.248;2022-07-21T14:26:08;10.00;;;3.97;;
40164;SDS011;25882;51.120;17.248;2022-07-21T14:28:36;11.60;;;3.55;;
40164;SDS011;25882;51.120;17.248;2022-07-21T14:31:04;7.93;;;3.65;;
40164;SDS011;25882;51.120;17.248;2022-07-21T14:33:30;7.10;;;3.13;;
40164;SDS011;25882;51.120;17.248;2022-07-21T14:35:57;6.07;;;3.38;;
40164;SDS011;25882;51.120;17.248;2022-07-21T14:38:23;7.80;;;3.92;;
40164;SDS011;25882;51.120;17.248;2022-07-21T14:40:50;9.55;;;3.60;;
40164;SDS011;25882;51.120;17.248;2022-07-21T14:43:16;7.45;;;3.35;;
40164;SDS011;25882;51.120;17.248;2022-07-21T14:45:42;9.70;;;4.20;;
40164;SDS011;25882;51.120;17.248;2022-07-21T14:48:10;5.88;;;3.20;;
40164;SDS011;25882;51.120;17.248;2022-07-21T14:50:36;9.15;;;3.55;;
40164;SDS011;25882;51.120;17.248;2022-07-21T14:53:02;5.57;;;3.28;;